createdAt,value
2022-12-20T05:17:25.184Z,55.00
2022-12-20T05:20:31.938Z,54.65
2022-12-20T05:23:54.147Z,54.45
2022-12-20T05:26:58.441Z,55.17
2022-12-20T05:30:02.107Z,53.15
2022-12-20T05:33:05.710Z,50.30
2022-12-20T05:36:09.247Z,49.55
2022-12-20T05:39:13.513Z,47.72
2022-12-20T05:42:16.338Z,53.38
2022-12-20T05:45:19.706Z,48.67
2022-12-20T05:48:22.510Z,47.70
2022-12-20T05:51:25.643Z,55.38
2022-12-20T05:54:28.376Z,54.00
2022-12-20T05:57:32.684Z,44.70
2022-12-20T06:00:35.315Z,49.05
2022-12-20T06:03:40.551Z,47.85
2022-12-20T06:06:43.615Z,49.58
2022-12-20T06:09:46.932Z,50.35
2022-12-20T06:12:50.138Z,50.25
2022-12-20T06:15:53.830Z,45.78
2022-12-20T06:18:57.123Z,49.72
2022-12-20T06:22:01.162Z,48.65
2022-12-20T06:25:06.175Z,49.90
2022-12-20T06:28:09.948Z,49.78
2022-12-20T06:31:12.916Z,45.70
2022-12-20T06:34:16.165Z,56.25
2022-12-20T06:37:19.300Z,54.03
2022-12-20T06:40:23.639Z,50.63
2022-12-20T06:43:26.138Z,53.53
2022-12-20T06:46:29.444Z,52.17
2022-12-20T06:49:33.288Z,50.95
2022-12-20T06:52:37.890Z,49.15
2022-12-20T06:55:40.725Z,48.83
2022-12-20T06:58:46.450Z,49.30
2022-12-20T07:01:49.248Z,54.67
2022-12-20T07:04:52.113Z,47.90
2022-12-20T07:07:54.528Z,46.97
2022-12-20T07:11:03.854Z,53.45
2022-12-20T07:14:06.511Z,48.65
2022-12-20T07:17:09.689Z,50.75
2022-12-20T07:20:14.206Z,49.40
2022-12-20T07:23:18.938Z,53.00
2022-12-20T07:26:21.907Z,47.38
2022-12-20T07:29:25.791Z,49.58
2022-12-20T07:32:29.851Z,49.10
2022-12-20T07:35:32.933Z,48.85
2022-12-20T07:38:35.951Z,45.00
2022-12-20T07:41:40.264Z,50.72
2022-12-20T07:44:47.687Z,45.28
2022-12-20T07:47:50.588Z,43.58
2022-12-20T07:50:58.348Z,39.78
2022-12-20T07:54:10.555Z,45.53
2022-12-20T07:57:19.921Z,47.75
2022-12-20T08:00:23.615Z,44.65
2022-12-20T08:03:33.167Z,46.75
2022-12-20T08:06:37.236Z,42.30
2022-12-20T08:09:43.975Z,45.17
2022-12-20T08:12:48.714Z,43.90
2022-12-20T08:15:51.592Z,47.88
2022-12-20T08:18:54.196Z,43.95
2022-12-20T08:21:56.966Z,39.22
2022-12-20T08:24:59.474Z,47.22
2022-12-20T08:28:04.062Z,40.70
2022-12-20T08:31:09.353Z,37.17
2022-12-20T08:34:13.017Z,37.72
2022-12-20T08:37:25.755Z,43.65
2022-12-20T08:40:29.421Z,42.40
2022-12-20T08:43:33.097Z,40.03
2022-12-20T08:46:37.217Z,40.60
2022-12-20T08:49:45.670Z,39.05
2022-12-20T08:52:50.322Z,43.73
2022-12-20T08:55:53.319Z,38.80
2022-12-20T08:58:59.056Z,37.45
2022-12-20T09:05:36.473Z,34.72
2022-12-20T09:16:04.664Z,36.38
2022-12-20T09:19:07.775Z,37.15
2022-12-20T09:22:10.511Z,40.38
2022-12-20T09:25:14.212Z,36.97
2022-12-20T09:28:16.843Z,42.13
2022-12-20T09:31:23.053Z,34.58
2022-12-20T09:34:25.720Z,36.85
2022-12-20T09:37:31.484Z,37.25
2022-12-20T09:40:38.672Z,39.78
2022-12-20T09:43:42.113Z,34.05
2022-12-20T09:46:51.609Z,30.90
2022-12-20T09:49:57.683Z,34.08
2022-12-20T09:53:22.710Z,34.58
2022-12-20T09:56:30.366Z,34.03
2022-12-20T09:59:40.456Z,30.67
2022-12-20T10:03:09.380Z,30.62
2022-12-20T10:06:24.975Z,34.20
2022-12-20T10:09:52.063Z,36.90
2022-12-20T10:13:22.629Z,34.13
2022-12-20T10:16:38.200Z,30.58
2022-12-20T10:20:00.974Z,35.22
2022-12-20T10:23:17.809Z,36.28
2022-12-20T10:26:22.681Z,34.50
2022-12-20T10:29:25.355Z,33.50
2022-12-20T10:32:29.265Z,31.77
2022-12-20T10:35:40.510Z,34.58
2022-12-20T10:41:49.981Z,37.33
2022-12-20T10:44:53.836Z,33.28
2022-12-20T10:48:00.688Z,32.58
2022-12-20T10:51:23.787Z,37.72
2022-12-20T10:54:31.093Z,31.75
2022-12-20T10:57:34.248Z,28.30
2022-12-20T11:00:42.191Z,32.00
2022-12-20T11:04:03.891Z,33.38
2022-12-20T11:07:26.324Z,34.50
2022-12-20T11:10:30.326Z,33.05
2022-12-20T11:13:33.019Z,32.20
2022-12-20T11:16:40.015Z,33.80
2022-12-20T11:19:51.932Z,28.67
2022-12-20T11:23:18.336Z,31.80
2022-12-20T11:26:50.860Z,34.22
2022-12-20T11:30:23.162Z,35.08
2022-12-20T11:33:47.711Z,35.20
2022-12-20T11:37:03.617Z,33.83
2022-12-20T11:40:29.450Z,33.85
2022-12-20T11:44:15.750Z,35.35
2022-12-20T11:47:46.502Z,34.28
2022-12-20T11:51:15.042Z,36.17
2022-12-20T11:54:23.867Z,33.75
2022-12-20T11:57:48.122Z,34.70
2022-12-20T12:01:08.049Z,30.35
2022-12-20T12:04:21.023Z,32.85
2022-12-20T12:07:32.812Z,31.30
2022-12-20T12:10:40.134Z,33.60
2022-12-20T12:13:45.829Z,33.15
2022-12-20T12:16:53.954Z,35.22
2022-12-20T12:20:05.098Z,32.53
2022-12-20T12:23:31.083Z,34.05
2022-12-20T12:26:41.016Z,30.55
2022-12-20T12:29:44.199Z,31.15
2022-12-20T12:33:04.019Z,30.73
2022-12-20T12:36:09.809Z,31.55
2022-12-20T12:39:34.392Z,34.33
2022-12-20T12:43:11.720Z,33.28
2022-12-20T12:46:40.870Z,37.05
2022-12-20T12:49:49.896Z,32.13
2022-12-20T12:52:56.084Z,32.45
2022-12-20T12:56:42.635Z,33.28
2022-12-20T12:59:48.401Z,31.62
2022-12-20T13:02:52.392Z,33.17
2022-12-20T13:05:55.955Z,30.98
2022-12-20T13:08:58.858Z,34.67
2022-12-20T13:12:36.574Z,31.92
2022-12-20T13:15:42.288Z,30.80
2022-12-20T13:19:02.393Z,31.23
2022-12-20T13:22:17.345Z,30.45
2022-12-20T13:25:47.640Z,29.23
2022-12-20T13:28:50.573Z,30.20
2022-12-20T13:31:55.766Z,34.33
2022-12-20T13:34:58.638Z,33.60
2022-12-20T13:38:06.109Z,32.40
2022-12-20T13:41:34.832Z,33.47
2022-12-20T13:44:47.299Z,31.83
2022-12-20T13:48:00.094Z,33.03
2022-12-20T13:51:03.106Z,31.45
2022-12-20T13:54:14.618Z,32.75
2022-12-20T13:57:44.942Z,34.65
2022-12-20T14:00:49.365Z,34.10
2022-12-20T14:03:53.488Z,32.30
2022-12-20T14:07:00.354Z,31.92
2022-12-20T14:10:16.134Z,31.55
2022-12-20T14:13:26.937Z,37.13
2022-12-20T14:16:33.340Z,38.97
2022-12-20T14:19:36.093Z,32.47
2022-12-20T14:23:05.455Z,35.47
2022-12-20T14:26:29.549Z,35.90
2022-12-20T14:29:32.559Z,40.40
2022-12-20T14:32:35.200Z,37.38
2022-12-20T14:35:47.648Z,33.45
2022-12-20T14:38:52.385Z,36.88
2022-12-20T14:42:03.612Z,37.85
2022-12-20T14:45:16.737Z,38.38
2022-12-20T14:48:19.850Z,37.88
2022-12-20T14:51:22.592Z,41.05
2022-12-20T14:57:54.290Z,36.33
2022-12-20T15:01:18.197Z,45.20
2022-12-20T15:04:25.660Z,43.47
2022-12-20T15:07:32.112Z,43.25
2022-12-20T15:10:37.871Z,50.10
2022-12-20T15:13:52.550Z,45.20
2022-12-20T15:16:55.295Z,46.88
2022-12-20T15:19:59.356Z,47.62
2022-12-20T15:23:03.213Z,47.78
2022-12-20T15:26:06.224Z,51.83
2022-12-20T15:29:17.342Z,54.40
2022-12-20T15:32:30.933Z,50.03
2022-12-20T15:35:33.741Z,51.17
2022-12-20T15:42:00.438Z,53.05
2022-12-20T15:45:03.601Z,49.45
2022-12-20T15:48:08.610Z,46.75
2022-12-20T15:51:21.917Z,52.85
2022-12-20T15:54:30.791Z,48.45
2022-12-20T15:57:34.384Z,46.90
2022-12-20T16:00:41.339Z,50.97
2022-12-20T16:03:44.562Z,49.55
2022-12-20T16:06:49.192Z,48.80
2022-12-20T16:09:52.631Z,52.45
2022-12-20T16:12:55.640Z,48.63
2022-12-20T16:16:00.232Z,47.90
2022-12-20T16:19:06.780Z,50.40
2022-12-20T16:22:17.770Z,51.63
2022-12-20T16:25:28.496Z,46.47
2022-12-20T16:28:31.632Z,57.80
2022-12-20T16:31:36.973Z,52.53
2022-12-20T16:34:40.100Z,56.15
2022-12-20T16:37:42.748Z,54.55
